Time;durP1;ratioP1;P1;durP2;ratioP2;P2;SDS_P1;SDS_P2;PMS_P1;PMS_P2;Temp;Humidity;BMP_temperature;BMP_pressure;BME280_temperature;BME280_humidity;BME280_pressure;Samples;Min_cycle;Max_cycle;Signal;HPM_P1;HPM_P2
2021/05/07 00:00:37;;;;;;;4.70;1.85;;;14.00;72.70;;;;;;5113547;28;20127;-71
2021/05/07 00:03:03;;;;;;;6.03;1.88;;;14.10;72.50;;;;;;5114900;28;20019;-69
2021/05/07 00:05:29;;;;;;;5.78;1.90;;;14.10;72.20;;;;;;5114808;28;20034;-68
2021/05/07 00:07:55;;;;;;;8.65;2.13;;;14.20;72.20;;;;;;5114273;28;20039;-71
2021/05/07 00:10:26;;;;;;;10.05;2.00;;;14.30;72.10;;;;;;5114794;28;20054;-71
2021/05/07 00:12:52;;;;;;;9.82;2.28;;;14.30;72.00;;;;;;5114728;28;20530;-72
2021/05/07 00:15:18;;;;;;;11.45;2.10;;;14.30;71.90;;;;;;5114359;28;20031;-70
2021/05/07 00:17:44;;;;;;;8.07;1.95;;;14.30;71.80;;;;;;5114321;28;20486;-71
2021/05/07 00:20:10;;;;;;;9.80;2.13;;;14.30;71.70;;;;;;5114499;28;20019;-70
2021/05/07 00:22:37;;;;;;;4.38;1.85;;;14.30;71.90;;;;;;5114523;28;20031;-69
2021/05/07 00:25:03;;;;;;;5.00;1.83;;;14.30;71.80;;;;;;5114724;28;20020;-71
2021/05/07 00:27:29;;;;;;;7.63;1.85;;;14.30;71.80;;;;;;5114152;28;20043;-70
2021/05/07 00:29:55;;;;;;;11.00;2.00;;;14.30;71.90;;;;;;5114119;28;20070;-70
2021/05/07 00:32:21;;;;;;;11.25;2.50;;;14.40;72.10;;;;;;5114476;28;20016;-70
2021/05/07 00:34:46;;;;;;;8.57;1.98;;;14.40;72.30;;;;;;5114554;28;20024;-69
2021/05/07 00:37:12;;;;;;;8.07;1.88;;;14.30;72.20;;;;;;5114219;28;20026;-71
2021/05/07 00:39:38;;;;;;;8.60;2.15;;;14.40;72.30;;;;;;5114156;28;20023;-72
2021/05/07 00:42:05;;;;;;;7.97;1.80;;;14.40;73.00;;;;;;5114077;28;20020;-72
2021/05/07 00:44:32;;;;;;;11.32;2.35;;;14.40;73.20;;;;;;5114254;28;20092;-72
2021/05/07 00:47:04;;;;;;;6.53;2.42;;;14.40;73.90;;;;;;5113195;28;20019;-72
2021/05/07 00:49:36;;;;;;;8.32;2.30;;;14.40;75.50;;;;;;5114049;28;20479;-72
2021/05/07 00:52:05;;;;;;;11.43;2.45;;;14.40;75.40;;;;;;5114191;27;20106;-71
2021/05/07 00:54:35;;;;;;;8.10;2.30;;;14.40;75.80;;;;;;5113908;28;20024;-72
2021/05/07 00:57:01;;;;;;;10.60;2.65;;;14.50;75.70;;;;;;5114265;28;20372;-72
2021/05/07 00:59:27;;;;;;;8.80;2.20;;;14.40;76.20;;;;;;5110771;28;20170;-71
2021/05/07 01:01:53;;;;;;;9.75;2.70;;;14.40;76.50;;;;;;5111193;28;20028;-72
2021/05/07 01:04:19;;;;;;;12.02;2.50;;;14.40;76.80;;;;;;5111534;28;20027;-72
2021/05/07 01:06:45;;;;;;;14.88;2.50;;;14.40;76.90;;;;;;5113145;28;20039;-72
2021/05/07 01:09:11;;;;;;;11.50;2.60;;;14.30;77.00;;;;;;5113299;28;20114;-72
2021/05/07 01:11:38;;;;;;;11.65;2.70;;;14.30;77.10;;;;;;5113338;28;20034;-72
2021/05/07 01:14:05;;;;;;;12.30;2.72;;;14.30;77.30;;;;;;5113394;28;20030;-72
2021/05/07 01:16:32;;;;;;;10.15;2.50;;;14.30;77.70;;;;;;5113304;28;20027;-72
2021/05/07 01:18:59;;;;;;;9.82;3.03;;;14.30;78.10;;;;;;5113333;28;20026;-72
2021/05/07 01:21:25;;;;;;;10.35;2.40;;;14.30;78.30;;;;;;5113343;28;20034;-72
2021/05/07 01:23:51;;;;;;;7.43;2.22;;;14.30;78.50;;;;;;5112755;28;20012;-71
2021/05/07 01:26:17;;;;;;;5.13;2.15;;;14.20;79.20;;;;;;5113175;28;20035;-72
2021/05/07 01:28:42;;;;;;;5.65;2.13;;;14.20;79.30;;;;;;5113399;28;20028;-72
2021/05/07 01:31:09;;;;;;;8.63;2.55;;;14.20;79.50;;;;;;5113598;28;20468;-72
2021/05/07 01:33:35;;;;;;;11.30;2.72;;;14.10;79.60;;;;;;5113487;28;20030;-72
2021/05/07 01:36:01;;;;;;;6.13;2.40;;;14.10;80.00;;;;;;5113084;28;20027;-72
2021/05/07 01:38:26;;;;;;;9.23;2.63;;;14.10;80.30;;;;;;5113169;28;20023;-72
2021/05/07 01:40:53;;;;;;;5.70;2.38;;;14.00;80.40;;;;;;5113281;28;20100;-71
2021/05/07 01:43:19;;;;;;;6.93;2.20;;;14.00;80.70;;;;;;5113306;28;20069;-72
2021/05/07 01:45:47;;;;;;;6.88;2.47;;;13.90;80.70;;;;;;5113524;28;20433;-72
2021/05/07 01:48:13;;;;;;;6.28;2.55;;;13.90;80.70;;;;;;5113123;28;20027;-72
2021/05/07 01:50:41;;;;;;;4.60;2.45;;;13.90;80.80;;;;;;5112722;28;20038;-72
2021/05/07 01:53:08;;;;;;;6.65;2.75;;;13.90;81.20;;;;;;5111885;28;20507;-72
2021/05/07 01:55:39;;;;;;;7.10;2.90;;;13.80;81.20;;;;;;5112462;28;20103;-70
2021/05/07 01:58:07;;;;;;;9.00;3.03;;;13.80;81.60;;;;;;5114664;28;20055;-72
2021/05/07 02:00:33;;;;;;;8.43;3.05;;;13.80;82.20;;;;;;5117486;28;20433;-72
2021/05/07 02:03:01;;;;;;;5.43;2.60;;;13.80;82.90;;;;;;5117529;28;20023;-72
2021/05/07 02:05:28;;;;;;;6.10;2.88;;;13.70;82.80;;;;;;5117242;28;20027;-72
2021/05/07 02:07:55;;;;;;;12.05;2.65;;;13.70;83.00;;;;;;5116855;28;20126;-72
2021/05/07 02:10:25;;;;;;;7.05;2.92;;;13.70;82.90;;;;;;5116980;28;20039;-71
2021/05/07 02:12:52;;;;;;;8.45;2.53;;;13.70;83.00;;;;;;5117352;28;20031;-72
2021/05/07 02:15:21;;;;;;;8.20;2.67;;;13.70;82.90;;;;;;5117261;28;20023;-72
2021/05/07 02:17:47;;;;;;;7.32;2.67;;;13.70;82.90;;;;;;5116917;28;20028;-72
2021/05/07 02:20:14;;;;;;;9.35;3.25;;;13.70;83.10;;;;;;5116866;28;20028;-72
2021/05/07 02:22:41;;;;;;;7.43;2.80;;;13.60;83.40;;;;;;5117129;28;20023;-72
2021/05/07 02:25:07;;;;;;;10.13;3.03;;;13.70;83.60;;;;;;5117009;28;20445;-72
2021/05/07 02:27:33;;;;;;;9.38;2.88;;;13.70;83.70;;;;;;5116908;28;20484;-71
2021/05/07 02:29:58;;;;;;;4.85;2.65;;;13.60;83.90;;;;;;5116896;28;20043;-72
2021/05/07 02:32:24;;;;;;;10.88;2.88;;;13.60;83.80;;;;;;5116658;28;20020;-71
2021/05/07 02:34:51;;;;;;;3.45;2.50;;;13.60;84.10;;;;;;5116672;28;20081;-72
2021/05/07 02:37:16;;;;;;;7.78;3.08;;;13.60;84.00;;;;;;5116417;28;20019;-72
2021/05/07 02:39:42;;;;;;;9.38;2.92;;;13.60;83.90;;;;;;5116510;28;20476;-72
2021/05/07 02:42:08;;;;;;;4.70;2.75;;;13.60;83.90;;;;;;5116611;28;20020;-71
2021/05/07 02:44:34;;;;;;;5.95;3.00;;;13.60;84.30;;;;;;5116337;28;20076;-72
2021/05/07 02:47:05;;;;;;;5.50;2.55;;;13.60;84.50;;;;;;5116120;28;20089;-72
2021/05/07 02:49:32;;;;;;;9.40;2.97;;;13.60;84.40;;;;;;5116398;28;20443;-72
2021/05/07 02:51:58;;;;;;;5.95;3.60;;;13.60;84.50;;;;;;5116298;28;20488;-72
2021/05/07 02:54:24;;;;;;;9.05;3.60;;;13.60;84.70;;;;;;5116302;28;20024;-72
2021/05/07 02:56:50;;;;;;;10.00;3.13;;;13.60;84.80;;;;;;5116353;28;20016;-72
2021/05/07 02:59:16;;;;;;;8.38;2.92;;;13.60;84.90;;;;;;5116425;28;20103;-72
2021/05/07 03:01:42;;;;;;;10.63;3.75;;;13.60;84.90;;;;;;5116264;28;20031;-72
2021/05/07 03:04:08;;;;;;;7.20;3.13;;;13.60;84.80;;;;;;5115964;28;20507;-71
2021/05/07 03:06:34;;;;;;;8.07;3.42;;;13.60;84.80;;;;;;5114518;28;20141;-71
2021/05/07 03:08:59;;;;;;;10.70;3.65;;;13.60;84.90;;;;;;5112923;28;20392;-72
2021/05/07 03:11:25;;;;;;;9.60;3.67;;;13.60;85.00;;;;;;5115218;28;20471;-72
2021/05/07 03:13:51;;;;;;;9.05;3.42;;;13.60;85.40;;;;;;5115838;28;20024;-71
2021/05/07 03:16:17;;;;;;;8.68;3.65;;;13.60;85.50;;;;;;5115734;28;20474;-70
2021/05/07 03:18:42;;;;;;;5.60;3.03;;;13.60;85.70;;;;;;5115807;28;20062;-72
2021/05/07 03:21:08;;;;;;;7.22;3.30;;;13.60;85.80;;;;;;5115847;28;20015;-72
2021/05/07 03:23:34;;;;;;;11.27;3.88;;;13.60;85.80;;;;;;5115917;28;20081;-72
2021/05/07 03:26:00;;;;;;;6.57;3.40;;;13.60;85.90;;;;;;5115968;28;20109;-72
2021/05/07 03:28:25;;;;;;;9.43;3.40;;;13.60;85.80;;;;;;5115206;28;20475;-70
2021/05/07 03:30:51;;;;;;;8.73;3.65;;;13.60;85.90;;;;;;5115871;28;20066;-66
2021/05/07 03:33:17;;;;;;;13.23;3.38;;;13.60;85.90;;;;;;5115621;28;20456;-68
2021/05/07 03:35:43;;;;;;;8.85;3.65;;;13.50;85.80;;;;;;5115520;28;20028;-71
2021/05/07 03:38:09;;;;;;;6.80;3.67;;;13.50;85.90;;;;;;5115075;28;20023;-70
2021/05/07 03:40:35;;;;;;;8.52;3.40;;;13.60;86.00;;;;;;5115398;28;20372;-72
2021/05/07 03:43:00;;;;;;;7.30;3.95;;;13.50;86.00;;;;;;5115046;28;20043;-72
2021/05/07 03:45:26;;;;;;;6.43;3.17;;;13.50;86.10;;;;;;5113070;28;20029;-67
2021/05/07 03:47:52;;;;;;;10.20;4.65;;;13.50;86.50;;;;;;5115167;28;20387;-72
2021/05/07 03:50:17;;;;;;;7.50;4.47;;;13.50;86.90;;;;;;5115257;28;20115;-70
2021/05/07 03:52:43;;;;;;;10.80;4.13;;;13.50;86.80;;;;;;5115046;28;20023;-71
2021/05/07 03:55:12;;;;;;;8.57;4.40;;;13.50;86.70;;;;;;5115312;28;20076;-72
2021/05/07 03:57:38;;;;;;;7.53;4.07;;;13.50;86.60;;;;;;5115014;28;20106;-71
2021/05/07 04:00:10;;;;;;;6.88;3.75;;;13.50;86.50;;;;;;5115139;28;20035;-72
2021/05/07 04:02:36;;;;;;;12.80;4.05;;;13.50;86.60;;;;;;5115353;28;20024;-72
2021/05/07 04:05:03;;;;;;;12.77;4.55;;;13.50;86.50;;;;;;5114851;28;20030;-68
2021/05/07 04:07:29;;;;;;;9.25;3.60;;;13.50;86.80;;;;;;5114647;28;20070;-70
2021/05/07 04:10:00;;;;;;;10.38;4.32;;;13.50;87.10;;;;;;5114738;28;20035;-68
2021/05/07 04:15:01;;;;;;;9.90;4.00;;;13.50;87.20;;;;;;5114727;28;20039;-72
2021/05/07 04:17:27;;;;;;;10.75;4.10;;;13.50;87.30;;;;;;5114697;28;20063;-71
2021/05/07 04:19:53;;;;;;;9.48;4.03;;;13.50;87.50;;;;;;5114462;28;20500;-70
2021/05/07 04:22:18;;;;;;;11.93;4.07;;;13.60;87.60;;;;;;5114447;28;20026;-70
2021/05/07 04:24:44;;;;;;;12.75;4.05;;;13.60;87.60;;;;;;5114880;28;20072;-71
2021/05/07 04:27:13;;;;;;;9.25;3.47;;;13.60;87.70;;;;;;5114032;28;20020;-70
2021/05/07 04:29:40;;;;;;;10.30;3.90;;;13.70;87.80;;;;;;5113772;28;20032;-70
2021/05/07 04:32:05;;;;;;;9.82;3.67;;;13.70;87.70;;;;;;5114119;28;20430;-70
2021/05/07 04:34:31;;;;;;;7.90;3.88;;;13.70;87.50;;;;;;5114183;28;20073;-72
2021/05/07 04:36:58;;;;;;;10.00;4.20;;;13.70;87.50;;;;;;5114299;28;20026;-72
2021/05/07 04:39:23;;;;;;;12.60;4.10;;;13.70;87.90;;;;;;5114057;28;20028;-71
2021/05/07 04:41:49;;;;;;;12.43;3.80;;;13.70;87.20;;;;;;5114301;28;20019;-72
2021/05/07 04:44:15;;;;;;;12.15;3.88;;;13.80;87.20;;;;;;5113113;28;20034;-71
2021/05/07 04:46:41;;;;;;;9.75;4.00;;;13.80;86.90;;;;;;5114127;28;20034;-72
2021/05/07 04:49:06;;;;;;;12.15;4.20;;;13.80;87.00;;;;;;5113896;28;20095;-72
2021/05/07 04:51:32;;;;;;;12.65;4.00;;;13.80;87.30;;;;;;5114030;28;20060;-72
2021/05/07 04:53:59;;;;;;;9.55;4.55;;;13.90;87.40;;;;;;5114119;28;20226;-72
2021/05/07 04:56:25;;;;;;;12.93;3.60;;;13.80;87.40;;;;;;5114052;28;20068;-70
2021/05/07 04:58:51;;;;;;;8.25;3.30;;;13.80;87.30;;;;;;5113933;28;20012;-72
2021/05/07 05:01:17;;;;;;;10.45;3.85;;;13.80;87.20;;;;;;5113933;28;20044;-71
2021/05/07 05:03:43;;;;;;;14.82;3.88;;;13.90;87.00;;;;;;5113667;28;20039;-71
2021/05/07 05:06:08;;;;;;;9.00;3.00;;;13.90;86.60;;;;;;5113890;28;20032;-71
2021/05/07 05:08:34;;;;;;;11.13;3.35;;;13.90;86.50;;;;;;5113504;28;20035;-72
2021/05/07 05:11:00;;;;;;;9.30;2.90;;;13.90;86.30;;;;;;5113666;28;20042;-72
2021/05/07 05:13:27;;;;;;;10.18;3.28;;;13.90;86.50;;;;;;5113730;28;20018;-71
2021/05/07 05:15:54;;;;;;;11.25;3.67;;;13.90;86.60;;;;;;5113899;28;20032;-71
2021/05/07 05:18:33;;;;;;;12.30;4.05;;;13.90;86.80;;;;;;5113646;28;20048;-72
2021/05/07 05:21:00;;;;;;;9.70;3.78;;;13.90;86.70;;;;;;5113852;28;20038;-72
2021/05/07 05:23:27;;;;;;;13.80;3.50;;;14.00;86.40;;;;;;5113565;28;20024;-72
2021/05/07 05:25:53;;;;;;;6.95;3.42;;;14.00;86.50;;;;;;5113666;28;20026;-69
2021/05/07 05:28:20;;;;;;;14.57;3.15;;;14.00;86.30;;;;;;5113550;28;20443;-72
2021/05/07 05:30:47;;;;;;;10.15;2.80;;;14.00;85.90;;;;;;5113933;28;20036;-71
2021/05/07 05:33:12;;;;;;;14.18;3.25;;;14.10;85.90;;;;;;5112850;28;20070;-71
2021/05/07 05:35:38;;;;;;;6.95;2.78;;;14.10;86.00;;;;;;5113390;28;20055;-71
2021/05/07 05:38:04;;;;;;;13.50;3.28;;;14.10;85.80;;;;;;5113266;28;20032;-72
2021/05/07 05:40:31;;;;;;;8.82;2.95;;;14.10;85.70;;;;;;5113519;28;20063;-70
2021/05/07 05:42:57;;;;;;;10.70;3.30;;;14.20;85.70;;;;;;5113265;28;20016;-72
2021/05/07 05:45:24;;;;;;;8.75;2.97;;;14.20;85.90;;;;;;5113253;28;20036;-71
2021/05/07 05:48:20;;;;;;;9.45;3.08;;;14.20;85.60;;;;;;5113054;28;20027;-72
2021/05/07 05:50:50;;;;;;;9.38;3.28;;;14.20;85.60;;;;;;5100394;28;20447;-72
2021/05/07 05:53:16;;;;;;;11.55;3.17;;;14.20;85.30;;;;;;5113429;28;20019;-71
2021/05/07 05:55:42;;;;;;;11.60;3.20;;;14.30;85.90;;;;;;5112977;28;20020;-69
2021/05/07 05:58:08;;;;;;;8.60;3.20;;;14.30;85.40;;;;;;5112908;28;20084;-71
2021/05/07 06:00:35;;;;;;;10.52;3.33;;;14.30;85.60;;;;;;5113106;28;20023;-72
2021/05/07 06:03:01;;;;;;;13.82;3.55;;;14.30;85.60;;;;;;5113144;28;20020;-72
2021/05/07 06:05:27;;;;;;;13.15;3.80;;;14.30;85.60;;;;;;5113203;28;20020;-72
2021/05/07 06:07:53;;;;;;;12.57;3.17;;;14.30;85.50;;;;;;5112873;28;20062;-72
2021/05/07 06:10:19;;;;;;;8.57;3.40;;;14.30;85.40;;;;;;5112917;28;20173;-72
2021/05/07 06:12:46;;;;;;;10.00;2.90;;;14.30;85.50;;;;;;5113020;28;20016;-72
2021/05/07 06:15:14;;;;;;;12.52;3.65;;;14.30;85.40;;;;;;5112916;28;20027;-72
2021/05/07 06:17:40;;;;;;;10.27;3.15;;;14.30;85.40;;;;;;5111804;28;20012;-71
2021/05/07 06:20:10;;;;;;;8.43;2.92;;;14.40;85.50;;;;;;5112726;28;20034;-72
2021/05/07 06:22:36;;;;;;;9.07;3.15;;;14.40;85.40;;;;;;5111891;28;20353;-71
2021/05/07 06:25:05;;;;;;;15.35;3.67;;;14.40;85.20;;;;;;5111938;28;20031;-70
2021/05/07 06:27:31;;;;;;;12.60;3.38;;;14.40;85.30;;;;;;5112381;28;20015;-71
2021/05/07 06:29:57;;;;;;;13.70;3.75;;;14.40;85.10;;;;;;5112398;28;20035;-72
2021/05/07 06:32:23;;;;;;;9.27;3.35;;;14.40;85.10;;;;;;5112928;28;20024;-71
2021/05/07 06:34:48;;;;;;;12.23;3.05;;;14.40;85.20;;;;;;5113040;28;20023;-72
2021/05/07 06:37:14;;;;;;;11.27;3.25;;;14.50;85.10;;;;;;5112987;28;20435;-72
2021/05/07 06:39:39;;;;;;;11.52;3.40;;;14.40;85.10;;;;;;5112702;28;20126;-67
2021/05/07 06:42:06;;;;;;;13.40;3.85;;;14.50;85.10;;;;;;5111437;28;20070;-69
2021/05/07 06:44:32;;;;;;;15.63;4.28;;;14.50;85.10;;;;;;5113332;28;20034;-69
2021/05/07 06:46:58;;;;;;;13.65;3.80;;;14.50;85.20;;;;;;5116452;28;20081;-69
2021/05/07 06:49:24;;;;;;;10.02;3.97;;;14.50;85.10;;;;;;5116093;28;20024;-69
2021/05/07 06:51:50;;;;;;;9.88;4.00;;;14.50;85.00;;;;;;5116476;28;20471;-68
2021/05/07 06:54:17;;;;;;;12.07;4.15;;;14.50;85.20;;;;;;5116497;28;20076;-68
2021/05/07 06:56:42;;;;;;;14.85;5.00;;;14.50;85.20;;;;;;5116337;28;20028;-68
2021/05/07 06:59:08;;;;;;;9.88;4.50;;;14.50;85.10;;;;;;5116121;28;20356;-68
2021/05/07 07:01:37;;;;;;;11.45;4.40;;;14.50;85.20;;;;;;5125184;27;20027;-68
2021/05/07 07:04:07;;;;;;;11.70;3.85;;;14.50;85.10;;;;;;5136742;27;20031;-68
2021/05/07 07:06:33;;;;;;;13.95;4.18;;;14.50;85.10;;;;;;5136594;27;20034;-68
2021/05/07 07:08:59;;;;;;;8.65;3.38;;;14.50;85.20;;;;;;5136528;27;20115;-68
2021/05/07 07:11:25;;;;;;;15.10;3.78;;;14.50;85.10;;;;;;5136516;27;20105;-68
2021/05/07 07:13:50;;;;;;;9.82;3.95;;;14.60;85.20;;;;;;5136435;27;20029;-68
2021/05/07 07:16:16;;;;;;;11.55;3.42;;;14.50;85.10;;;;;;5136562;27;20467;-70
2021/05/07 07:18:42;;;;;;;8.07;2.97;;;14.50;85.10;;;;;;5136374;27;20025;-70
2021/05/07 07:21:09;;;;;;;10.82;3.45;;;14.50;85.20;;;;;;5136293;27;20020;-69
2021/05/07 07:23:38;;;;;;;10.27;3.85;;;14.50;85.30;;;;;;5136628;27;20483;-68
2021/05/07 07:26:07;;;;;;;12.63;4.13;;;14.50;85.20;;;;;;5136326;27;20027;-70
2021/05/07 07:28:35;;;;;;;17.63;4.10;;;14.50;85.10;;;;;;5136044;27;20114;-70
2021/05/07 07:31:01;;;;;;;9.75;3.15;;;14.50;85.20;;;;;;5136429;27;20035;-70
2021/05/07 07:33:28;;;;;;;14.50;3.42;;;14.50;85.20;;;;;;5136538;27;20072;-69
2021/05/07 07:35:54;;;;;;;14.93;3.70;;;14.50;84.90;;;;;;5136197;27;20028;-68
2021/05/07 07:38:20;;;;;;;13.27;3.25;;;14.60;85.40;;;;;;5136077;27;20019;-70
2021/05/07 07:40:46;;;;;;;11.10;3.42;;;14.60;85.00;;;;;;5135468;27;20149;-69
2021/05/07 07:43:11;;;;;;;14.50;3.47;;;14.60;85.20;;;;;;5128639;27;20028;-68
2021/05/07 07:45:37;;;;;;;15.95;3.60;;;14.60;85.20;;;;;;5115374;28;20417;-68
2021/05/07 07:48:03;;;;;;;12.90;2.80;;;14.70;85.10;;;;;;5115422;28;20028;-68
2021/05/07 07:50:29;;;;;;;11.73;3.03;;;14.70;86.20;;;;;;5115034;28;20064;-68
2021/05/07 07:52:55;;;;;;;13.13;3.47;;;14.70;86.40;;;;;;5114960;28;20024;-67
2021/05/07 07:55:20;;;;;;;16.25;3.58;;;14.70;85.50;;;;;;5114623;28;20027;-68
2021/05/07 07:57:46;;;;;;;19.70;3.55;;;14.70;85.10;;;;;;5114846;28;20023;-67
2021/05/07 08:00:12;;;;;;;11.52;3.13;;;14.80;85.30;;;;;;5115398;28;20080;-69
2021/05/07 08:02:38;;;;;;;20.00;4.13;;;14.80;85.40;;;;;;5114838;28;20054;-68
2021/05/07 08:05:05;;;;;;;12.75;2.85;;;14.80;85.30;;;;;;5115031;28;20494;-68
2021/05/07 08:07:30;;;;;;;15.75;3.33;;;14.80;85.30;;;;;;5115137;28;20039;-67
2021/05/07 08:09:56;;;;;;;16.13;3.45;;;14.90;85.00;;;;;;5114603;28;20545;-68
2021/05/07 08:12:22;;;;;;;15.07;3.92;;;14.90;84.90;;;;;;5114075;28;20032;-68
2021/05/07 08:14:48;;;;;;;13.93;3.20;;;14.90;85.60;;;;;;5113513;28;20050;-68
2021/05/07 08:17:14;;;;;;;14.32;3.72;;;14.90;85.30;;;;;;5113199;28;20015;-68
2021/05/07 08:19:40;;;;;;;14.02;3.08;;;14.90;85.20;;;;;;5114528;28;20034;-68
2021/05/07 08:22:05;;;;;;;18.23;3.78;;;14.90;85.10;;;;;;5113009;28;20569;-68
2021/05/07 08:24:31;;;;;;;20.65;3.85;;;15.00;85.70;;;;;;5114505;27;20050;-68
2021/05/07 08:26:58;;;;;;;18.95;3.60;;;14.90;85.50;;;;;;5113754;28;20076;-68
2021/05/07 08:29:25;;;;;;;16.80;3.25;;;14.90;85.30;;;;;;5114379;28;20028;-68
2021/05/07 08:31:50;;;;;;;20.10;3.25;;;15.00;85.50;;;;;;5114277;27;20061;-68
2021/05/07 08:34:16;;;;;;;16.45;3.67;;;15.00;85.60;;;;;;5114387;28;20386;-68
2021/05/07 08:36:42;;;;;;;13.52;3.47;;;15.00;85.60;;;;;;5113255;28;20542;-67
2021/05/07 08:39:08;;;;;;;17.23;3.47;;;15.00;85.40;;;;;;5113314;28;20054;-68
2021/05/07 08:41:36;;;;;;;13.82;3.30;;;15.10;85.20;;;;;;5113082;28;20031;-68
2021/05/07 08:44:02;;;;;;;17.40;3.75;;;15.10;85.10;;;;;;5114475;28;20088;-68
2021/05/07 08:46:28;;;;;;;16.08;3.30;;;15.10;85.50;;;;;;5114231;28;20412;-68
2021/05/07 08:48:54;;;;;;;11.07;4.00;;;15.10;85.40;;;;;;5114187;28;20072;-68
2021/05/07 08:51:20;;;;;;;22.05;6.85;;;15.10;85.60;;;;;;5114579;28;20063;-68
2021/05/07 08:53:46;;;;;;;22.80;5.28;;;15.20;85.40;;;;;;5114283;28;20058;-68
2021/05/07 08:56:12;;;;;;;23.30;4.32;;;15.10;85.30;;;;;;5113696;28;20030;-68
2021/05/07 08:58:38;;;;;;;16.70;3.88;;;15.20;85.40;;;;;;5113816;28;20059;-68
2021/05/07 09:01:04;;;;;;;14.90;3.40;;;15.20;85.20;;;;;;5114141;28;20020;-68
2021/05/07 09:03:50;;;;;;;12.90;3.40;;;15.30;85.00;;;;;;5113916;28;20034;-68
2021/05/07 09:06:17;;;;;;;15.20;4.35;;;15.30;85.10;;;;;;5113173;28;20066;-68
2021/05/07 09:08:44;;;;;;;19.85;3.67;;;15.30;85.10;;;;;;5112790;28;20100;-67
2021/05/07 09:11:10;;;;;;;14.15;3.38;;;15.30;85.00;;;;;;5113852;28;20103;-68
2021/05/07 09:13:36;;;;;;;16.92;3.42;;;15.40;85.00;;;;;;5113684;28;20103;-67
2021/05/07 09:16:06;;;;;;;18.13;4.03;;;15.40;84.80;;;;;;5113555;28;20028;-67
2021/05/07 09:18:51;;;;;;;18.52;3.65;;;15.40;84.80;;;;;;5113566;28;20099;-67
2021/05/07 09:21:17;;;;;;;15.60;3.78;;;15.40;84.80;;;;;;5113520;28;20077;-67
2021/05/07 09:23:51;;;;;;;22.30;3.78;;;15.40;84.80;;;;;;5113459;28;20077;-67
2021/05/07 09:26:17;;;;;;;16.75;3.45;;;15.40;84.70;;;;;;5113765;28;20080;-67
2021/05/07 09:28:53;;;;;;;14.63;3.42;;;15.40;85.70;;;;;;5113240;28;20387;-67
2021/05/07 09:31:19;;;;;;;15.43;3.42;;;15.40;85.30;;;;;;5113734;28;20028;-67
2021/05/07 09:33:47;;;;;;;14.15;3.80;;;15.40;84.80;;;;;;5113641;28;20027;-67
2021/05/07 09:36:27;;;;;;;12.45;3.30;;;15.50;84.90;;;;;;5113614;28;20028;-67
2021/05/07 09:38:54;;;;;;;14.75;3.28;;;15.50;84.90;;;;;;5113393;28;20094;-67
2021/05/07 09:41:19;;;;;;;13.52;3.58;;;15.50;84.80;;;;;;5113809;28;20031;-67
2021/05/07 09:43:45;;;;;;;14.00;3.38;;;15.60;84.80;;;;;;5112976;28;20016;-67
2021/05/07 09:46:11;;;;;;;15.43;4.10;;;15.50;84.70;;;;;;5111235;28;20032;-67
2021/05/07 09:48:41;;;;;;;17.85;3.55;;;15.60;84.60;;;;;;5111738;28;20020;-67
2021/05/07 09:51:09;;;;;;;18.38;4.10;;;15.60;84.60;;;;;;5112293;28;20035;-67
2021/05/07 09:53:39;;;;;;;16.70;3.28;;;15.60;84.70;;;;;;5113791;28;20451;-67
2021/05/07 09:56:16;;;;;;;14.73;3.85;;;15.60;85.00;;;;;;5113429;28;20034;-67
2021/05/07 09:58:43;;;;;;;20.00;3.75;;;15.60;84.80;;;;;;5113614;28;20030;-67
2021/05/07 10:01:10;;;;;;;20.50;4.10;;;15.60;85.00;;;;;;5113354;28;20073;-67
2021/05/07 10:03:35;;;;;;;14.05;3.38;;;15.60;85.20;;;;;;5113398;28;20020;-67
2021/05/07 10:06:02;;;;;;;14.98;3.28;;;15.60;85.00;;;;;;5112075;28;20024;-67
2021/05/07 10:08:29;;;;;;;13.55;3.50;;;15.60;84.70;;;;;;5112971;28;20039;-66
2021/05/07 10:10:59;;;;;;;16.05;3.53;;;15.60;83.50;;;;;;5112484;28;20035;-67
2021/05/07 10:13:31;;;;;;;12.90;2.63;;;15.60;83.00;;;;;;5113483;28;20062;-67
2021/05/07 10:16:05;;;;;;;16.67;3.10;;;15.60;83.30;;;;;;5113104;28;20519;-66
2021/05/07 10:18:32;;;;;;;16.77;2.75;;;15.60;83.80;;;;;;5113891;28;20027;-67
2021/05/07 10:21:09;;;;;;;12.30;3.80;;;15.60;84.20;;;;;;5120432;27;20099;-67
2021/05/07 10:23:36;;;;;;;15.60;3.42;;;15.60;83.70;;;;;;5124650;27;20068;-67
2021/05/07 10:26:03;;;;;;;14.13;3.40;;;15.60;83.40;;;;;;5124377;27;20058;-67
2021/05/07 10:29:02;;;;;;;17.10;3.28;;;15.60;83.80;;;;;;5125087;27;20122;-66
2021/05/07 10:31:28;;;;;;;19.13;3.50;;;15.60;84.60;;;;;;5085131;27;20051;-67
2021/05/07 10:34:02;;;;;;;16.90;3.58;;;15.70;83.80;;;;;;5127577;27;20391;-67
2021/05/07 10:36:47;;;;;;;18.60;3.30;;;15.80;83.50;;;;;;5137375;27;20481;-68
2021/05/07 10:39:29;;;;;;;16.92;3.33;;;15.70;83.20;;;;;;5137228;27;20030;-67
2021/05/07 10:42:00;;;;;;;15.82;3.08;;;15.80;83.30;;;;;;5137118;27;20030;-67
2021/05/07 10:44:29;;;;;;;14.75;3.20;;;15.80;83.20;;;;;;5137186;27;20152;-68
2021/05/07 10:47:06;;;;;;;14.63;3.00;;;15.90;83.20;;;;;;5135735;27;20378;-67
2021/05/07 10:49:32;;;;;;;14.35;3.20;;;15.90;82.90;;;;;;5136914;27;20118;-67
2021/05/07 10:51:58;;;;;;;13.38;2.70;;;15.90;82.60;;;;;;5137051;27;20031;-67
2021/05/07 10:54:38;;;;;;;17.27;3.55;;;15.90;82.50;;;;;;5136883;27;20026;-67
2021/05/07 10:57:04;;;;;;;13.45;3.00;;;16.00;82.80;;;;;;5137065;27;20109;-68
2021/05/07 10:59:30;;;;;;;11.13;2.75;;;16.00;82.90;;;;;;5133741;27;20030;-68
2021/05/07 11:01:56;;;;;;;19.08;3.45;;;16.00;83.00;;;;;;5133795;27;20035;-67
2021/05/07 11:04:23;;;;;;;25.02;3.80;;;16.00;82.50;;;;;;5135645;27;20079;-67
2021/05/07 11:07:02;;;;;;;17.88;3.17;;;16.10;83.10;;;;;;5136671;27;20097;-68
2021/05/07 11:09:28;;;;;;;11.50;3.17;;;16.10;82.30;;;;;;5136160;27;20029;-68
2021/05/07 11:11:57;;;;;;;16.52;3.80;;;16.10;82.10;;;;;;5136635;27;20031;-67
2021/05/07 11:14:24;;;;;;;18.27;3.42;;;16.20;81.80;;;;;;5136389;27;20020;-67
2021/05/07 11:16:51;;;;;;;17.55;3.00;;;16.20;80.70;;;;;;5136561;27;20027;-67
2021/05/07 11:19:26;;;;;;;14.98;3.20;;;16.20;81.20;;;;;;5136328;27;20031;-67
2021/05/07 11:22:06;;;;;;;12.55;2.70;;;16.20;81.30;;;;;;5135736;27;20428;-66
2021/05/07 11:24:35;;;;;;;18.27;3.55;;;16.30;81.80;;;;;;5113746;27;20079;-67
2021/05/07 11:27:12;;;;;;;15.15;3.40;;;16.30;81.80;;;;;;5111534;28;20032;-67
2021/05/07 11:29:38;;;;;;;15.30;3.25;;;16.30;80.60;;;;;;5112867;28;20491;-67
2021/05/07 11:32:09;;;;;;;17.85;3.88;;;16.30;80.80;;;;;;5114450;28;20020;-67
2021/05/07 11:34:35;;;;;;;12.57;3.10;;;16.40;80.40;;;;;;5115143;28;20543;-68
2021/05/07 11:37:00;;;;;;;16.98;3.28;;;16.40;81.20;;;;;;5115336;28;20108;-68
2021/05/07 11:39:27;;;;;;;17.75;3.40;;;16.40;81.00;;;;;;5114861;28;20059;-68
2021/05/07 11:41:53;;;;;;;22.83;3.78;;;16.50;81.00;;;;;;5115538;28;20383;-68
2021/05/07 11:44:19;;;;;;;15.40;3.28;;;16.60;81.00;;;;;;5115348;28;20038;-67
2021/05/07 11:47:06;;;;;;;14.70;2.90;;;16.60;80.90;;;;;;5114856;28;20027;-68
2021/05/07 11:49:36;;;;;;;13.82;3.03;;;16.80;81.00;;;;;;5114941;28;20390;-68
2021/05/07 11:52:03;;;;;;;19.67;3.40;;;16.80;81.20;;;;;;5113782;28;20429;-68
2021/05/07 11:54:40;;;;;;;12.82;3.08;;;16.90;81.20;;;;;;5114968;28;20019;-67
2021/05/07 11:57:06;;;;;;;10.82;3.03;;;17.00;80.50;;;;;;5114812;28;20080;-67
2021/05/07 11:59:31;;;;;;;17.17;3.35;;;17.10;79.20;;;;;;5114643;28;20467;-68
2021/05/07 12:02:03;;;;;;;15.43;3.30;;;17.10;78.90;;;;;;5114579;28;20031;-67
2021/05/07 12:04:29;;;;;;;15.73;3.08;;;17.20;79.00;;;;;;5114879;28;20023;-67
2021/05/07 12:06:55;;;;;;;13.20;3.03;;;17.20;79.30;;;;;;5114352;28;20050;-67
2021/05/07 12:09:20;;;;;;;13.80;3.20;;;17.30;78.30;;;;;;5114228;28;20150;-67
2021/05/07 12:11:55;;;;;;;15.73;3.30;;;17.30;79.80;;;;;;5113625;28;20035;-68
2021/05/07 12:14:21;;;;;;;12.27;3.10;;;17.30;79.10;;;;;;5114839;28;20020;-67
2021/05/07 12:16:58;;;;;;;15.20;3.15;;;17.30;78.50;;;;;;5114254;28;20498;-68
2021/05/07 12:19:23;;;;;;;14.68;3.20;;;17.30;78.90;;;;;;5114239;28;20042;-67
2021/05/07 12:21:49;;;;;;;12.05;2.67;;;17.30;78.60;;;;;;5114396;28;20467;-67
2021/05/07 12:24:26;;;;;;;19.17;3.50;;;17.30;78.80;;;;;;5113811;28;20076;-68
2021/05/07 12:26:51;;;;;;;11.65;2.83;;;17.30;79.00;;;;;;5112220;28;20028;-67
2021/05/07 12:29:17;;;;;;;9.05;2.80;;;17.30;79.60;;;;;;5112090;28;20084;-66
2021/05/07 12:31:43;;;;;;;10.30;3.10;;;17.40;78.60;;;;;;5113409;28;20031;-67
2021/05/07 12:34:17;;;;;;;20.05;3.10;;;17.50;78.60;;;;;;5112257;28;20496;-67
2021/05/07 12:36:55;;;;;;;14.23;3.22;;;17.70;77.50;;;;;;5113925;28;20028;-67
2021/05/07 12:39:25;;;;;;;10.60;2.45;;;17.80;76.60;;;;;;5113624;28;20038;-67
2021/05/07 12:41:54;;;;;;;17.83;3.03;;;17.90;76.50;;;;;;5110611;28;20369;-67
2021/05/07 12:44:19;;;;;;;15.95;3.55;;;18.10;76.20;;;;;;5092886;28;20028;-67